Terminal Aerodrome Forecast
Issued by NWS

Home | Current Version | Previous Version | Text Only | Print | Product List | Glossary On
Versions: 1 2 3 4 5 6 7 8 9 10
113
FTUS42 TJSJ 231139 RRA
TAFJMZ
TAF
TJMZ 231139Z 2312/2412 VRB05KT P6SM -RA SCT030 BKN060 BKN090
     FM231430 08006KT P6SM FEW030 SCT060 BKN100
     FM231830 26009KT P6SM VCTS FEW025CB BKN040 BKN090
     FM232330 11005KT P6SM -RA SCT028 SCT060 BKN100
      AMD NOT SKED=

USA.gov is the U.S. government's official web portal to all federal, state and local government web resources and services.